fbpx

Taller para Instructores 2018

Taller para Instructores de Piloto Privado de Avión

Nos visitaron en el mes de Julio del 2018  los integrantes de la ANAC y la Federación Argentina de Aeroclubes con el motivo de realizar el Taller para Instructores de Piloto Privado de Avión. Agradecemos en su confianza para con nosotros como así también de la presencia de los instructores de la zona.

Facebook Aeroclub Mar del Plata

Informe Climatico
MAR DEL PLATA AR
Metar
SAZM 191100Z 25003KT 9999 BKN042 BKN049 19/18 Q1007

11:00 UTC

Wind: 250° 3kt

Visibility: 9999 m

Sky: BKN 4200 ft

Temp: 19 deg C / 66.2 deg F

Dewpoint: 18 deg C / 64.4 deg F

Pressure: 1007 hPa

TAF
TAF SAZM 190500Z 1906/2006 18010G20KT 9999 SCT030 BKN080 TX26/1918Z TN19/1910Z BECMG 1908/1910 14010KT CAVOK